sensor_id;sensor_type;location;lat;lon;timestamp;P1;durP1;ratioP1;P2;durP2;ratioP2
59193;SDS011;44967;48.598;15.650;2024-03-22T00:00:39;12.38;;;8.30;;
59193;SDS011;44967;48.598;15.650;2024-03-22T00:03:05;13.27;;;7.35;;
59193;SDS011;44967;48.598;15.650;2024-03-22T00:05:31;12.10;;;8.48;;
59193;SDS011;44967;48.598;15.650;2024-03-22T00:07:56;12.68;;;7.90;;
59193;SDS011;44967;48.598;15.650;2024-03-22T00:10:22;13.05;;;8.57;;
59193;SDS011;44967;48.598;15.650;2024-03-22T00:12:48;13.82;;;9.00;;
59193;SDS011;44967;48.598;15.650;2024-03-22T00:15:15;16.83;;;8.90;;
59193;SDS011;44967;48.598;15.650;2024-03-22T00:17:42;12.93;;;9.48;;
59193;SDS011;44967;48.598;15.650;2024-03-22T00:20:09;11.77;;;8.25;;
59193;SDS011;44967;48.598;15.650;2024-03-22T00:22:35;13.13;;;9.15;;
59193;SDS011;44967;48.598;15.650;2024-03-22T00:25:00;11.48;;;8.60;;
59193;SDS011;44967;48.598;15.650;2024-03-22T00:27:26;10.88;;;8.05;;
59193;SDS011;44967;48.598;15.650;2024-03-22T00:29:52;12.52;;;8.25;;
59193;SDS011;44967;48.598;15.650;2024-03-22T00:32:17;14.48;;;8.95;;
59193;SDS011;44967;48.598;15.650;2024-03-22T00:34:43;13.52;;;8.90;;
59193;SDS011;44967;48.598;15.650;2024-03-22T00:37:10;11.43;;;8.82;;
59193;SDS011;44967;48.598;15.650;2024-03-22T00:39:36;11.65;;;7.85;;
59193;SDS011;44967;48.598;15.650;2024-03-22T00:42:02;13.93;;;8.48;;
59193;SDS011;44967;48.598;15.650;2024-03-22T00:44:28;12.68;;;8.73;;
59193;SDS011;44967;48.598;15.650;2024-03-22T00:46:54;15.77;;;9.98;;
59193;SDS011;44967;48.598;15.650;2024-03-22T00:49:20;13.50;;;9.43;;
59193;SDS011;44967;48.598;15.650;2024-03-22T00:51:46;12.88;;;8.52;;
59193;SDS011;44967;48.598;15.650;2024-03-22T00:54:13;10.77;;;7.72;;
59193;SDS011;44967;48.598;15.650;2024-03-22T00:56:38;11.85;;;7.72;;
59193;SDS011;44967;48.598;15.650;2024-03-22T00:59:05;13.65;;;7.90;;
59193;SDS011;44967;48.598;15.650;2024-03-22T01:01:32;12.18;;;8.15;;
59193;SDS011;44967;48.598;15.650;2024-03-22T01:03:57;10.20;;;6.93;;
59193;SDS011;44967;48.598;15.650;2024-03-22T01:06:23;11.75;;;6.53;;
59193;SDS011;44967;48.598;15.650;2024-03-22T01:08:50;11.65;;;7.43;;
59193;SDS011;44967;48.598;15.650;2024-03-22T01:11:17;9.07;;;6.20;;
59193;SDS011;44967;48.598;15.650;2024-03-22T01:13:43;9.70;;;6.88;;
59193;SDS011;44967;48.598;15.650;2024-03-22T01:16:09;10.85;;;6.28;;
59193;SDS011;44967;48.598;15.650;2024-03-22T01:18:38;9.07;;;6.30;;
59193;SDS011;44967;48.598;15.650;2024-03-22T01:21:03;8.65;;;6.25;;
59193;SDS011;44967;48.598;15.650;2024-03-22T01:23:30;11.02;;;6.40;;
59193;SDS011;44967;48.598;15.650;2024-03-22T01:25:56;8.63;;;6.60;;
59193;SDS011;44967;48.598;15.650;2024-03-22T01:28:22;13.65;;;6.75;;
59193;SDS011;44967;48.598;15.650;2024-03-22T01:30:48;9.80;;;6.68;;
59193;SDS011;44967;48.598;15.650;2024-03-22T01:33:14;10.55;;;7.45;;
59193;SDS011;44967;48.598;15.650;2024-03-22T01:35:39;10.95;;;7.40;;
59193;SDS011;44967;48.598;15.650;2024-03-22T01:38:06;10.32;;;6.20;;
59193;SDS011;44967;48.598;15.650;2024-03-22T01:40:32;9.98;;;6.82;;
59193;SDS011;44967;48.598;15.650;2024-03-22T01:42:58;10.52;;;6.65;;
59193;SDS011;44967;48.598;15.650;2024-03-22T01:45:25;8.90;;;6.72;;
59193;SDS011;44967;48.598;15.650;2024-03-22T01:47:54;10.00;;;6.80;;
59193;SDS011;44967;48.598;15.650;2024-03-22T01:50:21;10.10;;;7.00;;
59193;SDS011;44967;48.598;15.650;2024-03-22T01:52:47;10.98;;;6.80;;
59193;SDS011;44967;48.598;15.650;2024-03-22T01:55:13;10.18;;;6.95;;
59193;SDS011;44967;48.598;15.650;2024-03-22T01:57:39;8.15;;;6.15;;
59193;SDS011;44967;48.598;15.650;2024-03-22T02:00:06;8.77;;;6.57;;
59193;SDS011;44967;48.598;15.650;2024-03-22T02:02:34;8.93;;;7.00;;
59193;SDS011;44967;48.598;15.650;2024-03-22T02:05:11;10.48;;;7.70;;
59193;SDS011;44967;48.598;15.650;2024-03-22T02:07:45;9.73;;;7.03;;
59193;SDS011;44967;48.598;15.650;2024-03-22T02:10:11;11.27;;;7.53;;
59193;SDS011;44967;48.598;15.650;2024-03-22T02:12:38;9.70;;;7.63;;
59193;SDS011;44967;48.598;15.650;2024-03-22T02:15:04;11.77;;;7.85;;
59193;SDS011;44967;48.598;15.650;2024-03-22T02:17:32;11.38;;;7.85;;
59193;SDS011;44967;48.598;15.650;2024-03-22T02:19:59;11.32;;;6.88;;
59193;SDS011;44967;48.598;15.650;2024-03-22T02:22:25;10.98;;;7.18;;
59193;SDS011;44967;48.598;15.650;2024-03-22T02:24:52;12.77;;;7.88;;
59193;SDS011;44967;48.598;15.650;2024-03-22T02:27:18;13.93;;;8.90;;
59193;SDS011;44967;48.598;15.650;2024-03-22T02:29:44;12.55;;;8.27;;
59193;SDS011;44967;48.598;15.650;2024-03-22T02:32:10;12.48;;;8.15;;
59193;SDS011;44967;48.598;15.650;2024-03-22T02:34:36;14.57;;;8.75;;
59193;SDS011;44967;48.598;15.650;2024-03-22T02:37:02;12.43;;;8.35;;
59193;SDS011;44967;48.598;15.650;2024-03-22T02:39:28;13.20;;;8.85;;
59193;SDS011;44967;48.598;15.650;2024-03-22T02:41:55;12.85;;;8.48;;
59193;SDS011;44967;48.598;15.650;2024-03-22T02:44:21;11.60;;;8.65;;
59193;SDS011;44967;48.598;15.650;2024-03-22T02:46:47;12.52;;;9.43;;
59193;SDS011;44967;48.598;15.650;2024-03-22T02:49:13;14.77;;;8.93;;
59193;SDS011;44967;48.598;15.650;2024-03-22T02:51:39;14.30;;;9.57;;
59193;SDS011;44967;48.598;15.650;2024-03-22T02:54:05;12.57;;;9.95;;
59193;SDS011;44967;48.598;15.650;2024-03-22T02:56:30;16.55;;;9.52;;
59193;SDS011;44967;48.598;15.650;2024-03-22T02:58:56;12.52;;;9.35;;
59193;SDS011;44967;48.598;15.650;2024-03-22T03:01:22;13.90;;;9.35;;
59193;SDS011;44967;48.598;15.650;2024-03-22T03:03:48;14.57;;;9.55;;
59193;SDS011;44967;48.598;15.650;2024-03-22T03:06:13;17.90;;;10.95;;
59193;SDS011;44967;48.598;15.650;2024-03-22T03:08:40;16.25;;;9.80;;
59193;SDS011;44967;48.598;15.650;2024-03-22T03:11:06;16.77;;;10.85;;
59193;SDS011;44967;48.598;15.650;2024-03-22T03:13:31;15.32;;;9.95;;
59193;SDS011;44967;48.598;15.650;2024-03-22T03:15:57;18.00;;;10.52;;
59193;SDS011;44967;48.598;15.650;2024-03-22T03:18:23;19.52;;;11.07;;
59193;SDS011;44967;48.598;15.650;2024-03-22T03:20:49;14.35;;;10.45;;
59193;SDS011;44967;48.598;15.650;2024-03-22T03:23:15;16.75;;;10.70;;
59193;SDS011;44967;48.598;15.650;2024-03-22T03:25:41;14.35;;;10.07;;
59193;SDS011;44967;48.598;15.650;2024-03-22T03:28:06;15.65;;;9.65;;
59193;SDS011;44967;48.598;15.650;2024-03-22T03:30:35;14.98;;;10.50;;
59193;SDS011;44967;48.598;15.650;2024-03-22T03:33:01;17.77;;;11.23;;
59193;SDS011;44967;48.598;15.650;2024-03-22T03:35:27;14.23;;;10.05;;
59193;SDS011;44967;48.598;15.650;2024-03-22T03:37:54;14.75;;;9.50;;
59193;SDS011;44967;48.598;15.650;2024-03-22T03:40:20;15.13;;;9.55;;
59193;SDS011;44967;48.598;15.650;2024-03-22T03:42:47;13.35;;;9.38;;
59193;SDS011;44967;48.598;15.650;2024-03-22T03:45:13;13.48;;;9.93;;
59193;SDS011;44967;48.598;15.650;2024-03-22T03:47:39;13.18;;;9.25;;
59193;SDS011;44967;48.598;15.650;2024-03-22T03:50:05;12.90;;;9.02;;
59193;SDS011;44967;48.598;15.650;2024-03-22T03:52:31;13.02;;;9.02;;
59193;SDS011;44967;48.598;15.650;2024-03-22T03:54:57;14.25;;;9.15;;
59193;SDS011;44967;48.598;15.650;2024-03-22T03:57:22;14.63;;;10.35;;
59193;SDS011;44967;48.598;15.650;2024-03-22T03:59:48;13.23;;;8.82;;
59193;SDS011;44967;48.598;15.650;2024-03-22T04:02:14;13.32;;;8.57;;
59193;SDS011;44967;48.598;15.650;2024-03-22T04:04:39;13.57;;;8.45;;
59193;SDS011;44967;48.598;15.650;2024-03-22T04:07:05;15.68;;;9.68;;
59193;SDS011;44967;48.598;15.650;2024-03-22T04:09:31;16.75;;;9.45;;
59193;SDS011;44967;48.598;15.650;2024-03-22T04:11:58;14.60;;;9.15;;
59193;SDS011;44967;48.598;15.650;2024-03-22T04:14:24;14.13;;;8.73;;
59193;SDS011;44967;48.598;15.650;2024-03-22T04:16:51;14.80;;;8.80;;
59193;SDS011;44967;48.598;15.650;2024-03-22T04:19:16;13.93;;;9.25;;
59193;SDS011;44967;48.598;15.650;2024-03-22T04:21:42;16.90;;;8.27;;
59193;SDS011;44967;48.598;15.650;2024-03-22T04:24:08;14.57;;;9.98;;
59193;SDS011;44967;48.598;15.650;2024-03-22T04:26:33;13.45;;;8.90;;
59193;SDS011;44967;48.598;15.650;2024-03-22T04:28:59;13.52;;;8.57;;
59193;SDS011;44967;48.598;15.650;2024-03-22T04:31:25;13.90;;;8.45;;
59193;SDS011;44967;48.598;15.650;2024-03-22T04:33:50;12.07;;;7.38;;
59193;SDS011;44967;48.598;15.650;2024-03-22T04:36:16;14.13;;;8.73;;
59193;SDS011;44967;48.598;15.650;2024-03-22T04:38:42;13.32;;;8.48;;
59193;SDS011;44967;48.598;15.650;2024-03-22T04:41:08;13.27;;;8.23;;
59193;SDS011;44967;48.598;15.650;2024-03-22T04:43:34;11.52;;;8.00;;
59193;SDS011;44967;48.598;15.650;2024-03-22T04:46:00;13.95;;;8.98;;
59193;SDS011;44967;48.598;15.650;2024-03-22T04:48:26;18.42;;;10.80;;
59193;SDS011;44967;48.598;15.650;2024-03-22T04:50:52;18.48;;;10.60;;
59193;SDS011;44967;48.598;15.650;2024-03-22T04:53:21;16.52;;;9.52;;
59193;SDS011;44967;48.598;15.650;2024-03-22T04:55:48;14.02;;;9.15;;
59193;SDS011;44967;48.598;15.650;2024-03-22T04:58:15;12.75;;;8.50;;
59193;SDS011;44967;48.598;15.650;2024-03-22T05:00:44;13.23;;;9.05;;
59193;SDS011;44967;48.598;15.650;2024-03-22T05:03:11;16.33;;;9.80;;
59193;SDS011;44967;48.598;15.650;2024-03-22T05:05:38;14.25;;;8.48;;
59193;SDS011;44967;48.598;15.650;2024-03-22T05:08:05;13.88;;;9.00;;
59193;SDS011;44967;48.598;15.650;2024-03-22T05:10:32;12.32;;;8.05;;
59193;SDS011;44967;48.598;15.650;2024-03-22T05:12:58;12.40;;;8.02;;
59193;SDS011;44967;48.598;15.650;2024-03-22T05:15:27;13.65;;;9.40;;
59193;SDS011;44967;48.598;15.650;2024-03-22T05:17:53;13.85;;;8.88;;
59193;SDS011;44967;48.598;15.650;2024-03-22T05:20:21;12.55;;;9.23;;
59193;SDS011;44967;48.598;15.650;2024-03-22T05:22:47;14.73;;;9.30;;
59193;SDS011;44967;48.598;15.650;2024-03-22T05:25:13;14.73;;;9.00;;
59193;SDS011;44967;48.598;15.650;2024-03-22T05:27:40;13.88;;;9.00;;
59193;SDS011;44967;48.598;15.650;2024-03-22T05:30:08;12.05;;;8.40;;
59193;SDS011;44967;48.598;15.650;2024-03-22T05:32:35;13.00;;;8.82;;
59193;SDS011;44967;48.598;15.650;2024-03-22T05:35:00;12.93;;;7.85;;
59193;SDS011;44967;48.598;15.650;2024-03-22T05:37:26;10.60;;;7.35;;
59193;SDS011;44967;48.598;15.650;2024-03-22T05:39:52;13.30;;;7.75;;
59193;SDS011;44967;48.598;15.650;2024-03-22T05:42:17;14.18;;;8.52;;
59193;SDS011;44967;48.598;15.650;2024-03-22T05:44:44;15.60;;;8.98;;
59193;SDS011;44967;48.598;15.650;2024-03-22T05:47:10;12.35;;;8.82;;
59193;SDS011;44967;48.598;15.650;2024-03-22T05:49:36;12.30;;;8.48;;
59193;SDS011;44967;48.598;15.650;2024-03-22T05:52:01;14.13;;;7.97;;
59193;SDS011;44967;48.598;15.650;2024-03-22T05:54:27;12.95;;;8.50;;
59193;SDS011;44967;48.598;15.650;2024-03-22T05:56:53;12.75;;;8.52;;
59193;SDS011;44967;48.598;15.650;2024-03-22T05:59:19;12.27;;;8.27;;
59193;SDS011;44967;48.598;15.650;2024-03-22T06:01:44;11.57;;;8.10;;
59193;SDS011;44967;48.598;15.650;2024-03-22T06:04:10;11.02;;;7.18;;
59193;SDS011;44967;48.598;15.650;2024-03-22T06:06:36;10.82;;;6.78;;
59193;SDS011;44967;48.598;15.650;2024-03-22T06:09:03;10.32;;;7.35;;
59193;SDS011;44967;48.598;15.650;2024-03-22T06:11:30;13.88;;;7.57;;
59193;SDS011;44967;48.598;15.650;2024-03-22T06:13:55;10.63;;;7.47;;
59193;SDS011;44967;48.598;15.650;2024-03-22T06:16:21;13.50;;;8.30;;
59193;SDS011;44967;48.598;15.650;2024-03-22T06:18:47;10.57;;;7.90;;
59193;SDS011;44967;48.598;15.650;2024-03-22T06:21:13;13.45;;;9.02;;
59193;SDS011;44967;48.598;15.650;2024-03-22T06:23:49;11.85;;;7.82;;
59193;SDS011;44967;48.598;15.650;2024-03-22T06:26:16;11.68;;;8.05;;
59193;SDS011;44967;48.598;15.650;2024-03-22T06:28:42;18.02;;;10.30;;
59193;SDS011;44967;48.598;15.650;2024-03-22T06:31:08;19.00;;;11.65;;
59193;SDS011;44967;48.598;15.650;2024-03-22T06:33:34;20.05;;;11.68;;
59193;SDS011;44967;48.598;15.650;2024-03-22T06:36:00;19.40;;;10.18;;
59193;SDS011;44967;48.598;15.650;2024-03-22T06:38:26;15.93;;;10.38;;
59193;SDS011;44967;48.598;15.650;2024-03-22T06:40:52;17.95;;;11.93;;
59193;SDS011;44967;48.598;15.650;2024-03-22T06:43:18;17.30;;;11.00;;
59193;SDS011;44967;48.598;15.650;2024-03-22T06:45:44;16.95;;;11.00;;
59193;SDS011;44967;48.598;15.650;2024-03-22T06:48:10;18.65;;;10.73;;
59193;SDS011;44967;48.598;15.650;2024-03-22T06:50:35;18.30;;;11.57;;
59193;SDS011;44967;48.598;15.650;2024-03-22T06:53:01;13.50;;;10.18;;
59193;SDS011;44967;48.598;15.650;2024-03-22T06:55:27;18.42;;;10.65;;
59193;SDS011;44967;48.598;15.650;2024-03-22T06:57:52;15.40;;;9.90;;
59193;SDS011;44967;48.598;15.650;2024-03-22T07:00:18;13.85;;;9.30;;
59193;SDS011;44967;48.598;15.650;2024-03-22T07:02:44;14.40;;;8.82;;
59193;SDS011;44967;48.598;15.650;2024-03-22T07:05:10;11.25;;;7.68;;
59193;SDS011;44967;48.598;15.650;2024-03-22T07:07:37;14.88;;;10.60;;
59193;SDS011;44967;48.598;15.650;2024-03-22T07:10:03;15.55;;;9.95;;
59193;SDS011;44967;48.598;15.650;2024-03-22T07:12:31;15.25;;;10.77;;
59193;SDS011;44967;48.598;15.650;2024-03-22T07:14:59;15.50;;;9.43;;
59193;SDS011;44967;48.598;15.650;2024-03-22T07:17:28;12.02;;;6.97;;
59193;SDS011;44967;48.598;15.650;2024-03-22T07:19:54;10.55;;;7.32;;
59193;SDS011;44967;48.598;15.650;2024-03-22T07:22:21;12.02;;;7.93;;
59193;SDS011;44967;48.598;15.650;2024-03-22T07:24:48;15.70;;;7.28;;
59193;SDS011;44967;48.598;15.650;2024-03-22T07:27:15;10.70;;;7.72;;
59193;SDS011;44967;48.598;15.650;2024-03-22T07:29:41;11.45;;;8.25;;
59193;SDS011;44967;48.598;15.650;2024-03-22T07:32:07;10.13;;;6.43;;
59193;SDS011;44967;48.598;15.650;2024-03-22T07:34:33;5.65;;;3.78;;
59193;SDS011;44967;48.598;15.650;2024-03-22T07:36:59;4.13;;;2.83;;
59193;SDS011;44967;48.598;15.650;2024-03-22T07:39:25;4.30;;;3.30;;
59193;SDS011;44967;48.598;15.650;2024-03-22T07:41:51;3.63;;;2.70;;
59193;SDS011;44967;48.598;15.650;2024-03-22T07:44:16;7.57;;;3.50;;
59193;SDS011;44967;48.598;15.650;2024-03-22T07:46:45;3.97;;;3.00;;
59193;SDS011;44967;48.598;15.650;2024-03-22T07:49:12;5.13;;;3.10;;
59193;SDS011;44967;48.598;15.650;2024-03-22T07:51:38;4.72;;;3.55;;
59193;SDS011;44967;48.598;15.650;2024-03-22T07:54:04;6.03;;;3.38;;
59193;SDS011;44967;48.598;15.650;2024-03-22T07:56:30;3.88;;;2.90;;
59193;SDS011;44967;48.598;15.650;2024-03-22T07:58:56;4.32;;;3.70;;
59193;SDS011;44967;48.598;15.650;2024-03-22T08:01:22;5.20;;;4.22;;
59193;SDS011;44967;48.598;15.650;2024-03-22T08:03:49;7.80;;;3.90;;
59193;SDS011;44967;48.598;15.650;2024-03-22T08:06:16;4.45;;;3.50;;
59193;SDS011;44967;48.598;15.650;2024-03-22T08:08:42;5.55;;;3.30;;
59193;SDS011;44967;48.598;15.650;2024-03-22T08:11:07;4.22;;;2.92;;
59193;SDS011;44967;48.598;15.650;2024-03-22T08:13:35;5.60;;;3.75;;
59193;SDS011;44967;48.598;15.650;2024-03-22T08:16:01;4.55;;;3.22;;
59193;SDS011;44967;48.598;15.650;2024-03-22T08:18:26;4.57;;;3.72;;
59193;SDS011;44967;48.598;15.650;2024-03-22T08:20:52;6.25;;;4.13;;
59193;SDS011;44967;48.598;15.650;2024-03-22T08:23:17;6.13;;;3.60;;
59193;SDS011;44967;48.598;15.650;2024-03-22T08:25:45;4.70;;;3.30;;
59193;SDS011;44967;48.598;15.650;2024-03-22T08:28:11;5.80;;;3.65;;
59193;SDS011;44967;48.598;15.650;2024-03-22T08:30:39;5.22;;;3.55;;
59193;SDS011;44967;48.598;15.650;2024-03-22T08:33:05;5.85;;;3.78;;
59193;SDS011;44967;48.598;15.650;2024-03-22T08:35:31;5.13;;;3.53;;
59193;SDS011;44967;48.598;15.650;2024-03-22T08:37:56;5.93;;;3.17;;
59193;SDS011;44967;48.598;15.650;2024-03-22T08:40:24;3.85;;;3.05;;
59193;SDS011;44967;48.598;15.650;2024-03-22T08:42:50;4.93;;;3.33;;
59193;SDS011;44967;48.598;15.650;2024-03-22T08:45:16;6.10;;;3.90;;
59193;SDS011;44967;48.598;15.650;2024-03-22T08:47:42;6.32;;;4.20;;
59193;SDS011;44967;48.598;15.650;2024-03-22T08:50:11;4.80;;;3.50;;
59193;SDS011;44967;48.598;15.650;2024-03-22T08:52:37;5.70;;;4.13;;
59193;SDS011;44967;48.598;15.650;2024-03-22T08:55:03;6.13;;;4.47;;
59193;SDS011;44967;48.598;15.650;2024-03-22T08:57:31;5.82;;;4.00;;
59193;SDS011;44967;48.598;15.650;2024-03-22T08:59:58;6.57;;;4.70;;
59193;SDS011;44967;48.598;15.650;2024-03-22T09:02:24;5.03;;;3.60;;
59193;SDS011;44967;48.598;15.650;2024-03-22T09:04:50;7.25;;;4.57;;
59193;SDS011;44967;48.598;15.650;2024-03-22T09:07:16;4.97;;;3.67;;
59193;SDS011;44967;48.598;15.650;2024-03-22T09:09:42;5.93;;;4.30;;
59193;SDS011;44967;48.598;15.650;2024-03-22T09:12:08;10.23;;;5.28;;
59193;SDS011;44967;48.598;15.650;2024-03-22T09:14:34;8.13;;;5.13;;
59193;SDS011;44967;48.598;15.650;2024-03-22T09:17:00;9.75;;;5.40;;
59193;SDS011;44967;48.598;15.650;2024-03-22T09:19:26;6.32;;;4.85;;
59193;SDS011;44967;48.598;15.650;2024-03-22T09:21:51;8.93;;;5.00;;
59193;SDS011;44967;48.598;15.650;2024-03-22T09:24:17;10.25;;;5.00;;
59193;SDS011;44967;48.598;15.650;2024-03-22T09:26:43;8.93;;;5.60;;
59193;SDS011;44967;48.598;15.650;2024-03-22T09:29:08;7.80;;;5.13;;
59193;SDS011;44967;48.598;15.650;2024-03-22T09:31:34;7.78;;;4.82;;
59193;SDS011;44967;48.598;15.650;2024-03-22T09:34:00;7.22;;;4.68;;
59193;SDS011;44967;48.598;15.650;2024-03-22T09:36:26;8.68;;;5.30;;
59193;SDS011;44967;48.598;15.650;2024-03-22T09:38:52;7.60;;;4.72;;
59193;SDS011;44967;48.598;15.650;2024-03-22T09:41:20;11.85;;;5.50;;
59193;SDS011;44967;48.598;15.650;2024-03-22T09:43:53;6.82;;;5.10;;
59193;SDS011;44967;48.598;15.650;2024-03-22T09:46:22;8.63;;;4.90;;
59193;SDS011;44967;48.598;15.650;2024-03-22T09:48:48;8.70;;;4.63;;
59193;SDS011;44967;48.598;15.650;2024-03-22T09:51:17;7.30;;;4.55;;
59193;SDS011;44967;48.598;15.650;2024-03-22T09:53:49;8.88;;;5.10;;
59193;SDS011;44967;48.598;15.650;2024-03-22T09:56:20;8.60;;;5.38;;
59193;SDS011;44967;48.598;15.650;2024-03-22T09:58:47;7.57;;;4.95;;
59193;SDS011;44967;48.598;15.650;2024-03-22T10:01:13;8.52;;;5.13;;
59193;SDS011;44967;48.598;15.650;2024-03-22T10:03:39;8.85;;;5.18;;
59193;SDS011;44967;48.598;15.650;2024-03-22T10:06:05;7.80;;;4.93;;
59193;SDS011;44967;48.598;15.650;2024-03-22T10:08:31;9.02;;;5.20;;
59193;SDS011;44967;48.598;15.650;2024-03-22T10:10:57;6.90;;;4.25;;
59193;SDS011;44967;48.598;15.650;2024-03-22T10:13:23;6.18;;;3.92;;
59193;SDS011;44967;48.598;15.650;2024-03-22T10:15:49;6.10;;;3.83;;
59193;SDS011;44967;48.598;15.650;2024-03-22T10:18:15;6.60;;;3.75;;
59193;SDS011;44967;48.598;15.650;2024-03-22T10:20:41;7.00;;;5.03;;
59193;SDS011;44967;48.598;15.650;2024-03-22T10:23:07;6.22;;;4.50;;
59193;SDS011;44967;48.598;15.650;2024-03-22T10:25:33;6.35;;;4.15;;
59193;SDS011;44967;48.598;15.650;2024-03-22T10:27:59;7.70;;;4.70;;
59193;SDS011;44967;48.598;15.650;2024-03-22T10:30:25;7.82;;;5.00;;
59193;SDS011;44967;48.598;15.650;2024-03-22T10:32:51;5.85;;;4.55;;
59193;SDS011;44967;48.598;15.650;2024-03-22T10:35:17;6.57;;;4.28;;
59193;SDS011;44967;48.598;15.650;2024-03-22T10:37:43;7.93;;;5.50;;
59193;SDS011;44967;48.598;15.650;2024-03-22T10:40:11;6.50;;;4.85;;
59193;SDS011;44967;48.598;15.650;2024-03-22T10:45:04;6.03;;;4.45;;
59193;SDS011;44967;48.598;15.650;2024-03-22T10:47:33;6.85;;;4.07;;
59193;SDS011;44967;48.598;15.650;2024-03-22T10:52:33;6.88;;;4.70;;
59193;SDS011;44967;48.598;15.650;2024-03-22T10:55:12;8.25;;;4.18;;
59193;SDS011;44967;48.598;15.650;2024-03-22T10:57:45;6.75;;;4.43;;
59193;SDS011;44967;48.598;15.650;2024-03-22T11:00:12;6.53;;;3.80;;
59193;SDS011;44967;48.598;15.650;2024-03-22T11:02:44;5.85;;;3.65;;
59193;SDS011;44967;48.598;15.650;2024-03-22T11:05:17;5.07;;;3.72;;
59193;SDS011;44967;48.598;15.650;2024-03-22T11:07:44;7.18;;;4.10;;
59193;SDS011;44967;48.598;15.650;2024-03-22T11:10:13;6.35;;;3.83;;
59193;SDS011;44967;48.598;15.650;2024-03-22T11:12:41;6.28;;;3.45;;
59193;SDS011;44967;48.598;15.650;2024-03-22T11:15:10;4.82;;;3.72;;
59193;SDS011;44967;48.598;15.650;2024-03-22T11:17:37;5.40;;;3.08;;
59193;SDS011;44967;48.598;15.650;2024-03-22T11:20:03;3.78;;;2.83;;
59193;SDS011;44967;48.598;15.650;2024-03-22T11:22:31;4.22;;;2.92;;
59193;SDS011;44967;48.598;15.650;2024-03-22T11:24:57;3.65;;;2.70;;
59193;SDS011;44967;48.598;15.650;2024-03-22T11:27:23;6.78;;;2.78;;
59193;SDS011;44967;48.598;15.650;2024-03-22T11:29:49;7.32;;;3.22;;
59193;SDS011;44967;48.598;15.650;2024-03-22T11:32:16;3.35;;;2.75;;
59193;SDS011;44967;48.598;15.650;2024-03-22T11:34:43;4.22;;;2.70;;
59193;SDS011;44967;48.598;15.650;2024-03-22T11:37:09;4.07;;;2.90;;
59193;SDS011;44967;48.598;15.650;2024-03-22T11:39:36;4.53;;;3.00;;
59193;SDS011;44967;48.598;15.650;2024-03-22T11:42:05;3.22;;;2.70;;
59193;SDS011;44967;48.598;15.650;2024-03-22T11:44:35;3.25;;;2.90;;
59193;SDS011;44967;48.598;15.650;2024-03-22T11:47:04;4.15;;;2.53;;
59193;SDS011;44967;48.598;15.650;2024-03-22T11:49:30;3.70;;;2.55;;
59193;SDS011;44967;48.598;15.650;2024-03-22T11:51:56;3.80;;;3.05;;
59193;SDS011;44967;48.598;15.650;2024-03-22T11:54:22;4.35;;;2.47;;
59193;SDS011;44967;48.598;15.650;2024-03-22T11:56:51;3.65;;;2.65;;
59193;SDS011;44967;48.598;15.650;2024-03-22T11:59:20;4.30;;;2.47;;
59193;SDS011;44967;48.598;15.650;2024-03-22T12:01:46;3.78;;;2.58;;
59193;SDS011;44967;48.598;15.650;2024-03-22T12:04:12;5.18;;;2.42;;
59193;SDS011;44967;48.598;15.650;2024-03-22T12:06:44;5.35;;;2.80;;
59193;SDS011;44967;48.598;15.650;2024-03-22T12:09:11;3.08;;;2.42;;
59193;SDS011;44967;48.598;15.650;2024-03-22T12:11:39;3.53;;;2.75;;
59193;SDS011;44967;48.598;15.650;2024-03-22T12:14:05;4.53;;;2.83;;
59193;SDS011;44967;48.598;15.650;2024-03-22T12:16:30;4.35;;;2.70;;
59193;SDS011;44967;48.598;15.650;2024-03-22T12:18:57;6.20;;;2.97;;
59193;SDS011;44967;48.598;15.650;2024-03-22T12:21:23;4.03;;;2.88;;
59193;SDS011;44967;48.598;15.650;2024-03-22T12:23:49;4.28;;;2.50;;
59193;SDS011;44967;48.598;15.650;2024-03-22T12:26:16;3.70;;;2.63;;
59193;SDS011;44967;48.598;15.650;2024-03-22T12:28:42;4.72;;;2.50;;
59193;SDS011;44967;48.598;15.650;2024-03-22T12:31:08;3.95;;;2.22;;
59193;SDS011;44967;48.598;15.650;2024-03-22T12:33:36;3.03;;;2.35;;
59193;SDS011;44967;48.598;15.650;2024-03-22T12:36:02;2.65;;;2.25;;
59193;SDS011;44967;48.598;15.650;2024-03-22T12:38:29;2.70;;;2.20;;
59193;SDS011;44967;48.598;15.650;2024-03-22T12:40:56;5.22;;;2.15;;
59193;SDS011;44967;48.598;15.650;2024-03-22T12:43:22;3.30;;;2.28;;
59193;SDS011;44967;48.598;15.650;2024-03-22T12:45:48;3.47;;;2.15;;
59193;SDS011;44967;48.598;15.650;2024-03-22T12:48:14;2.72;;;2.05;;
59193;SDS011;44967;48.598;15.650;2024-03-22T12:50:39;3.63;;;2.15;;
59193;SDS011;44967;48.598;15.650;2024-03-22T12:53:05;4.68;;;2.05;;
59193;SDS011;44967;48.598;15.650;2024-03-22T12:55:31;4.22;;;2.20;;
59193;SDS011;44967;48.598;15.650;2024-03-22T12:57:58;4.05;;;2.38;;
59193;SDS011;44967;48.598;15.650;2024-03-22T13:00:23;2.97;;;1.83;;
59193;SDS011;44967;48.598;15.650;2024-03-22T13:02:50;3.40;;;1.90;;
59193;SDS011;44967;48.598;15.650;2024-03-22T13:05:16;2.35;;;1.73;;
59193;SDS011;44967;48.598;15.650;2024-03-22T13:07:42;2.78;;;1.33;;
59193;SDS011;44967;48.598;15.650;2024-03-22T13:10:08;3.05;;;1.50;;
59193;SDS011;44967;48.598;15.650;2024-03-22T13:12:35;1.90;;;1.75;;
59193;SDS011;44967;48.598;15.650;2024-03-22T13:15:01;3.58;;;2.20;;
59193;SDS011;44967;48.598;15.650;2024-03-22T13:17:28;1.73;;;1.63;;
59193;SDS011;44967;48.598;15.650;2024-03-22T13:19:54;2.38;;;2.17;;
59193;SDS011;44967;48.598;15.650;2024-03-22T13:22:20;2.25;;;1.77;;
59193;SDS011;44967;48.598;15.650;2024-03-22T13:24:45;2.38;;;2.00;;
59193;SDS011;44967;48.598;15.650;2024-03-22T13:27:12;4.80;;;1.65;;
59193;SDS011;44967;48.598;15.650;2024-03-22T13:29:38;3.03;;;1.77;;
59193;SDS011;44967;48.598;15.650;2024-03-22T13:32:07;2.92;;;2.35;;
59193;SDS011;44967;48.598;15.650;2024-03-22T13:34:34;2.15;;;1.95;;
59193;SDS011;44967;48.598;15.650;2024-03-22T13:37:01;4.25;;;2.50;;
59193;SDS011;44967;48.598;15.650;2024-03-22T13:39:27;3.85;;;1.92;;
59193;SDS011;44967;48.598;15.650;2024-03-22T13:41:55;5.00;;;2.28;;
59193;SDS011;44967;48.598;15.650;2024-03-22T13:44:22;6.93;;;2.30;;
59193;SDS011;44967;48.598;15.650;2024-03-22T13:46:51;3.28;;;1.70;;
59193;SDS011;44967;48.598;15.650;2024-03-22T13:49:17;2.08;;;1.83;;
59193;SDS011;44967;48.598;15.650;2024-03-22T13:51:46;5.25;;;2.00;;
59193;SDS011;44967;48.598;15.650;2024-03-22T13:54:13;3.08;;;1.90;;
59193;SDS011;44967;48.598;15.650;2024-03-22T13:56:39;2.28;;;1.63;;
59193;SDS011;44967;48.598;15.650;2024-03-22T13:59:05;2.35;;;2.08;;
59193;SDS011;44967;48.598;15.650;2024-03-22T14:01:33;2.90;;;2.05;;
59193;SDS011;44967;48.598;15.650;2024-03-22T14:03:59;2.90;;;2.10;;
59193;SDS011;44967;48.598;15.650;2024-03-22T14:06:25;4.47;;;1.92;;
59193;SDS011;44967;48.598;15.650;2024-03-22T14:08:51;2.08;;;1.58;;
59193;SDS011;44967;48.598;15.650;2024-03-22T14:11:20;4.35;;;2.03;;
59193;SDS011;44967;48.598;15.650;2024-03-22T14:13:45;7.43;;;1.88;;
59193;SDS011;44967;48.598;15.650;2024-03-22T14:16:11;9.85;;;2.55;;
59193;SDS011;44967;48.598;15.650;2024-03-22T14:18:37;4.28;;;1.80;;
59193;SDS011;44967;48.598;15.650;2024-03-22T14:21:03;2.05;;;1.48;;
59193;SDS011;44967;48.598;15.650;2024-03-22T14:23:28;2.78;;;1.85;;
59193;SDS011;44967;48.598;15.650;2024-03-22T14:25:54;2.03;;;1.80;;